createdAt,value
2023-02-14T00:01:49.995Z,1.20
2023-02-14T00:04:18.909Z,1.07
2023-02-14T00:06:46.633Z,1.07
2023-02-14T00:09:19.447Z,1.10
2023-02-14T00:11:47.052Z,0.90
2023-02-14T00:14:33.549Z,1.20
2023-02-14T00:17:01.296Z,1.20
2023-02-14T00:19:28.522Z,0.83
2023-02-14T00:21:55.914Z,0.90
2023-02-14T00:24:25.539Z,0.90
2023-02-14T00:26:53.537Z,0.90
2023-02-14T00:29:30.280Z,1.00
2023-02-14T00:31:57.607Z,0.90
2023-02-14T00:34:29.198Z,1.00
2023-02-14T00:37:00.576Z,0.93
2023-02-14T00:39:27.921Z,0.90
2023-02-14T00:41:55.065Z,1.10
2023-02-14T00:44:22.431Z,0.97
2023-02-14T00:46:49.578Z,1.47
2023-02-14T00:49:17.050Z,0.97
2023-02-14T00:51:44.505Z,0.90
2023-02-14T00:54:11.819Z,0.90
2023-02-14T00:56:39.312Z,1.00
2023-02-14T00:59:06.592Z,1.30
2023-02-14T01:01:34.053Z,1.10
2023-02-14T01:04:01.486Z,1.10
2023-02-14T01:06:28.967Z,1.40
2023-02-14T01:08:56.423Z,0.90
2023-02-14T01:11:24.770Z,1.20
2023-02-14T01:13:57.292Z,0.90
2023-02-14T01:16:26.729Z,1.20
2023-02-14T01:18:54.163Z,1.20
2023-02-14T01:21:25.145Z,1.00
2023-02-14T01:23:54.714Z,1.00
2023-02-14T01:26:23.379Z,1.00
2023-02-14T01:28:51.248Z,1.27
2023-02-14T01:31:22.363Z,1.07
2023-02-14T01:33:50.798Z,1.00
2023-02-14T01:36:23.981Z,1.20
2023-02-14T01:39:01.115Z,0.80
2023-02-14T01:41:31.522Z,1.20
2023-02-14T01:44:05.631Z,1.00
2023-02-14T01:46:37.910Z,1.10
2023-02-14T01:49:14.311Z,1.17
2023-02-14T01:51:50.613Z,0.83
2023-02-14T01:54:19.888Z,0.90
2023-02-14T01:56:51.732Z,0.90
2023-02-14T01:59:23.885Z,0.93
2023-02-14T02:01:53.417Z,0.90
2023-02-14T02:04:32.634Z,0.80
2023-02-14T02:07:06.014Z,1.10
2023-02-14T02:09:37.084Z,0.70
2023-02-14T02:12:05.154Z,1.00
2023-02-14T02:14:32.883Z,1.10
2023-02-14T02:17:00.129Z,1.20
2023-02-14T02:19:31.622Z,1.23
2023-02-14T02:22:43.253Z,0.93
2023-02-14T02:25:45.297Z,1.00
2023-02-14T02:28:30.966Z,1.00
2023-02-14T02:31:17.106Z,1.10
2023-02-14T02:34:08.759Z,1.07
2023-02-14T02:37:00.274Z,0.90
2023-02-14T02:40:05.033Z,0.90
2023-02-14T02:42:52.889Z,1.10
2023-02-14T02:46:14.171Z,0.93
2023-02-14T02:49:04.728Z,1.13
2023-02-14T02:52:12.995Z,1.00
2023-02-14T02:54:50.168Z,1.00
2023-02-14T02:57:26.576Z,1.17
2023-02-14T02:59:55.477Z,1.10
2023-02-14T03:02:31.450Z,1.10
2023-02-14T03:05:02.165Z,1.20
2023-02-14T03:07:39.392Z,1.20
2023-02-14T03:10:18.993Z,1.10
2023-02-14T03:13:04.650Z,1.10
2023-02-14T03:15:39.782Z,1.13
2023-02-14T03:18:14.014Z,1.10
2023-02-14T03:21:16.429Z,0.90
2023-02-14T03:24:14.365Z,0.90
2023-02-14T03:26:51.904Z,1.07
2023-02-14T03:29:26.844Z,1.43
2023-02-14T03:32:18.763Z,1.30
2023-02-14T03:35:11.554Z,1.20
2023-02-14T03:37:53.622Z,1.10
2023-02-14T03:40:28.715Z,1.03
2023-02-14T03:43:02.356Z,1.20
2023-02-14T03:45:59.064Z,1.30
2023-02-14T03:48:29.038Z,1.20
2023-02-14T03:50:58.542Z,1.20
2023-02-14T03:53:29.899Z,1.40
2023-02-14T03:56:23.140Z,1.10
2023-02-14T03:58:54.699Z,1.30
2023-02-14T04:01:47.467Z,1.17
2023-02-14T04:04:18.357Z,1.17
2023-02-14T04:06:46.064Z,1.03
2023-02-14T04:09:13.269Z,1.30
2023-02-14T04:11:41.310Z,1.20
2023-02-14T04:14:08.881Z,1.40
2023-02-14T04:16:56.354Z,1.00
2023-02-14T04:19:23.628Z,1.00
2023-02-14T04:21:54.196Z,1.57
2023-02-14T04:24:21.809Z,1.10
2023-02-14T04:27:10.277Z,1.10
2023-02-14T04:29:56.615Z,1.07
2023-02-14T04:32:23.840Z,1.20
2023-02-14T04:34:51.278Z,1.20
2023-02-14T04:37:20.133Z,1.40
2023-02-14T04:39:47.901Z,1.30
2023-02-14T04:42:15.695Z,1.30
2023-02-14T04:44:42.973Z,1.40
2023-02-14T04:47:10.588Z,1.17
2023-02-14T04:49:38.000Z,1.40
2023-02-14T04:52:06.571Z,1.10
2023-02-14T04:54:34.219Z,1.30
2023-02-14T04:57:01.871Z,1.20
2023-02-14T04:59:29.882Z,1.60
2023-02-14T05:01:57.102Z,1.40
2023-02-14T05:04:24.961Z,1.10
2023-02-14T05:06:52.206Z,1.50
2023-02-14T05:09:19.411Z,1.20
2023-02-14T05:11:46.815Z,1.17
2023-02-14T05:14:14.326Z,1.27
2023-02-14T05:16:41.528Z,1.20
2023-02-14T05:19:09.107Z,1.20
2023-02-14T05:21:36.467Z,1.40
2023-02-14T05:24:03.778Z,1.43
2023-02-14T05:26:31.012Z,1.30
2023-02-14T05:28:58.217Z,1.40
2023-02-14T05:31:25.480Z,1.13
2023-02-14T05:33:53.179Z,1.60
2023-02-14T05:36:20.850Z,1.60
2023-02-14T05:38:47.964Z,1.30
2023-02-14T05:41:15.367Z,1.20
2023-02-14T05:43:42.849Z,1.40
2023-02-14T05:46:10.128Z,1.33
2023-02-14T05:48:37.534Z,1.20
2023-02-14T05:51:07.054Z,1.10
2023-02-14T05:53:35.097Z,1.27
2023-02-14T05:56:02.801Z,1.27
2023-02-14T05:58:30.791Z,1.27
2023-02-14T06:00:59.291Z,1.23
2023-02-14T06:03:27.483Z,1.27
2023-02-14T06:05:54.790Z,1.20
2023-02-14T06:08:22.011Z,1.50
2023-02-14T06:10:49.530Z,1.50
2023-02-14T06:13:16.701Z,1.60
2023-02-14T06:15:43.911Z,1.60
2023-02-14T06:18:11.291Z,1.47
2023-02-14T06:20:38.613Z,1.60
2023-02-14T06:23:05.796Z,1.53
2023-02-14T06:25:33.415Z,1.57
2023-02-14T06:28:01.510Z,1.30
2023-02-14T06:30:31.332Z,1.80
2023-02-14T06:32:58.916Z,1.23
2023-02-14T06:35:26.589Z,1.60
2023-02-14T06:37:54.073Z,1.70
2023-02-14T06:40:22.293Z,1.33
2023-02-14T06:42:49.710Z,1.37
2023-02-14T06:45:16.982Z,1.37
2023-02-14T06:47:46.489Z,1.53
2023-02-14T06:50:15.816Z,1.43
2023-02-14T06:52:44.704Z,1.70
2023-02-14T06:55:14.121Z,1.70
2023-02-14T06:57:41.612Z,1.60
2023-02-14T07:00:10.374Z,1.80
2023-02-14T07:02:39.101Z,1.87
2023-02-14T07:05:06.744Z,1.80
2023-02-14T07:07:34.502Z,2.10
2023-02-14T07:10:02.348Z,1.90
2023-02-14T07:12:29.564Z,1.93
2023-02-14T07:14:57.037Z,1.90
2023-02-14T07:17:24.708Z,2.03
2023-02-14T07:19:51.993Z,1.73
2023-02-14T07:22:19.472Z,2.07
2023-02-14T07:24:46.894Z,2.00
2023-02-14T07:27:14.529Z,1.83
2023-02-14T07:29:41.881Z,1.53
2023-02-14T07:32:09.539Z,1.90
2023-02-14T07:34:36.928Z,1.60
2023-02-14T07:37:04.352Z,1.60
2023-02-14T07:39:31.791Z,1.67
2023-02-14T07:41:59.162Z,2.17
2023-02-14T07:44:26.404Z,2.10
2023-02-14T07:46:53.538Z,1.97
2023-02-14T07:49:20.901Z,2.10
2023-02-14T07:51:48.312Z,2.10
2023-02-14T07:54:16.082Z,2.13
2023-02-14T07:56:43.507Z,2.03
2023-02-14T07:59:10.984Z,1.90
2023-02-14T08:01:38.185Z,1.97
2023-02-14T08:04:05.612Z,1.50
2023-02-14T08:06:32.935Z,1.93
2023-02-14T08:09:00.631Z,1.70
2023-02-14T08:11:46.670Z,1.50
2023-02-14T08:14:14.426Z,1.50
2023-02-14T08:16:42.023Z,1.40
2023-02-14T08:19:09.691Z,1.47
2023-02-14T08:21:37.095Z,1.63
2023-02-14T08:24:04.888Z,1.37
2023-02-14T08:26:32.845Z,1.60
2023-02-14T08:29:02.287Z,1.70
2023-02-14T08:31:36.234Z,1.83
2023-02-14T08:34:05.191Z,1.10
2023-02-14T08:36:33.087Z,1.40
2023-02-14T08:39:00.800Z,1.37
2023-02-14T08:41:28.336Z,1.30
2023-02-14T08:43:55.771Z,1.50
2023-02-14T08:46:23.494Z,1.10
2023-02-14T08:48:51.988Z,1.40
2023-02-14T08:51:19.823Z,1.40
2023-02-14T08:53:51.104Z,1.13
2023-02-14T08:56:19.199Z,1.40
2023-02-14T08:58:46.408Z,1.50
2023-02-14T09:01:18.312Z,1.20
2023-02-14T09:03:46.143Z,1.30
2023-02-14T09:06:17.848Z,1.27
2023-02-14T09:08:47.013Z,1.50
2023-02-14T09:11:22.433Z,1.70
2023-02-14T09:13:53.492Z,1.27
2023-02-14T09:16:22.502Z,1.57
2023-02-14T09:18:50.361Z,1.60
2023-02-14T09:21:23.990Z,1.50
2023-02-14T09:23:51.547Z,1.57
2023-02-14T09:26:19.837Z,1.60
2023-02-14T09:28:47.304Z,1.40
2023-02-14T09:31:20.381Z,1.50
2023-02-14T09:33:49.911Z,1.57
2023-02-14T09:36:36.118Z,1.70
2023-02-14T09:39:03.612Z,1.30
2023-02-14T09:41:30.709Z,1.77
2023-02-14T09:44:11.496Z,1.83
2023-02-14T09:46:48.774Z,1.63
2023-02-14T09:49:19.250Z,1.77
2023-02-14T09:51:51.555Z,1.50
2023-02-14T09:54:28.620Z,1.40
2023-02-14T09:57:11.210Z,1.50
2023-02-14T09:59:44.786Z,1.50
2023-02-14T10:02:27.078Z,1.27
2023-02-14T10:05:15.745Z,1.40
2023-02-14T10:07:53.620Z,1.50
2023-02-14T10:10:28.955Z,1.47
2023-02-14T10:13:07.658Z,1.30
2023-02-14T10:15:42.160Z,1.13
2023-02-14T10:18:36.791Z,1.20
2023-02-14T10:21:08.272Z,1.37
2023-02-14T10:23:45.578Z,1.30
2023-02-14T10:26:25.018Z,1.40
2023-02-14T10:28:54.396Z,1.40
2023-02-14T10:31:38.634Z,1.30
2023-02-14T10:34:22.909Z,1.50
2023-02-14T10:37:24.687Z,1.30
2023-02-14T10:40:19.008Z,1.50
2023-02-14T10:43:28.062Z,1.60
2023-02-14T10:46:04.848Z,1.23
2023-02-14T10:48:54.879Z,1.80
2023-02-14T10:51:33.975Z,1.40
2023-02-14T10:54:17.597Z,1.37
2023-02-14T10:56:55.339Z,1.40
2023-02-14T10:59:52.899Z,1.23
2023-02-14T11:02:25.183Z,1.40
2023-02-14T11:04:53.084Z,1.33
2023-02-14T11:07:21.816Z,1.40
2023-02-14T11:09:49.634Z,1.40
2023-02-14T11:12:55.921Z,1.40
2023-02-14T11:15:25.132Z,1.10
2023-02-14T11:18:14.575Z,1.07
2023-02-14T11:20:42.702Z,1.30
2023-02-14T11:23:24.943Z,1.30
2023-02-14T11:25:58.846Z,1.10
2023-02-14T11:28:28.728Z,1.50
2023-02-14T11:30:56.882Z,1.13
2023-02-14T11:33:28.933Z,1.30
2023-02-14T11:35:57.316Z,1.17
2023-02-14T11:38:38.411Z,1.30
2023-02-14T11:41:09.821Z,1.20
2023-02-14T11:43:44.612Z,1.27
2023-02-14T11:46:21.093Z,1.10
2023-02-14T11:49:23.740Z,1.10
2023-02-14T11:51:52.329Z,1.30
2023-02-14T11:54:38.565Z,1.10
2023-02-14T11:57:08.720Z,1.10
2023-02-14T11:59:37.829Z,1.30
2023-02-14T12:02:32.847Z,1.40
2023-02-14T12:05:15.956Z,1.27
2023-02-14T12:07:46.506Z,1.00
2023-02-14T12:10:16.784Z,1.20
2023-02-14T12:12:56.292Z,1.07
2023-02-14T12:15:35.152Z,1.30
2023-02-14T12:18:40.808Z,1.27
2023-02-14T12:21:37.030Z,1.37
2023-02-14T12:24:29.607Z,1.20
2023-02-14T12:27:11.839Z,1.30
2023-02-14T12:29:52.016Z,1.20
2023-02-14T12:32:28.978Z,1.30
2023-02-14T12:35:20.078Z,1.10
2023-02-14T12:38:11.819Z,1.23
2023-02-14T12:41:04.402Z,1.20
2023-02-14T12:43:54.400Z,1.30
2023-02-14T12:46:50.338Z,1.20
2023-02-14T12:49:44.697Z,1.00
2023-02-14T12:52:30.917Z,1.13
2023-02-14T12:55:21.202Z,1.27
2023-02-14T12:57:51.542Z,1.00
2023-02-14T13:00:51.478Z,1.20
2023-02-14T13:03:39.513Z,1.10
2023-02-14T13:06:30.465Z,1.20
2023-02-14T13:09:28.034Z,1.00
2023-02-14T13:12:22.919Z,0.93
2023-02-14T13:15:11.153Z,1.00
2023-02-14T13:17:48.785Z,1.30
2023-02-14T13:20:47.596Z,1.20
2023-02-14T13:23:24.533Z,1.23
2023-02-14T13:26:25.992Z,1.10
2023-02-14T13:29:04.013Z,1.30
2023-02-14T13:31:32.052Z,1.47
2023-02-14T13:34:20.663Z,1.30
2023-02-14T13:36:48.739Z,1.20
2023-02-14T13:39:53.921Z,1.20
2023-02-14T13:42:49.900Z,1.57
2023-02-14T13:45:33.076Z,1.30
2023-02-14T13:48:20.511Z,1.33
2023-02-14T13:51:00.250Z,1.40
2023-02-14T13:53:31.563Z,1.27
2023-02-14T13:56:00.548Z,1.20
2023-02-14T13:58:28.466Z,1.20
2023-02-14T14:00:57.587Z,1.63
2023-02-14T14:03:31.632Z,1.30
2023-02-14T14:06:13.260Z,1.30
2023-02-14T14:08:52.490Z,1.20
2023-02-14T14:11:22.403Z,1.20
2023-02-14T14:13:58.589Z,1.27
2023-02-14T14:16:29.055Z,1.47
2023-02-14T14:19:17.597Z,1.20
2023-02-14T14:22:00.966Z,1.30
2023-02-14T14:24:37.006Z,1.23
2023-02-14T14:27:15.381Z,1.10
2023-02-14T14:29:48.299Z,1.33
2023-02-14T14:32:28.339Z,1.30
2023-02-14T14:35:03.089Z,1.50
2023-02-14T14:37:34.276Z,1.23
2023-02-14T14:40:08.441Z,1.23
2023-02-14T14:42:41.593Z,1.20
2023-02-14T14:45:38.730Z,1.27
2023-02-14T14:48:13.387Z,1.30
2023-02-14T14:50:46.106Z,1.43
2023-02-14T14:53:45.262Z,1.30
2023-02-14T14:56:23.238Z,1.20
2023-02-14T14:58:50.849Z,1.37
2023-02-14T15:01:37.853Z,1.30
2023-02-14T15:04:30.202Z,1.40
2023-02-14T15:07:17.486Z,1.30
2023-02-14T15:09:45.447Z,1.30
2023-02-14T15:12:33.749Z,1.13
2023-02-14T15:15:01.101Z,1.20
2023-02-14T15:17:32.707Z,1.40
2023-02-14T15:20:04.431Z,1.13
2023-02-14T15:22:44.502Z,1.30
2023-02-14T15:25:21.893Z,1.20
2023-02-14T15:27:50.782Z,1.40
2023-02-14T15:30:29.283Z,1.10
2023-02-14T15:32:57.852Z,1.20
2023-02-14T15:35:29.460Z,1.10
2023-02-14T15:37:59.808Z,1.20
2023-02-14T15:40:31.310Z,1.43
2023-02-14T15:43:14.132Z,1.53
2023-02-14T15:45:42.897Z,1.10
2023-02-14T15:48:27.504Z,1.20
2023-02-14T15:50:59.185Z,1.17
2023-02-14T15:53:29.784Z,1.20
2023-02-14T15:56:04.969Z,1.07
2023-02-14T15:58:35.544Z,1.13
2023-02-14T16:01:06.977Z,1.20
2023-02-14T16:03:40.276Z,1.50
2023-02-14T16:06:07.496Z,1.47
2023-02-14T16:08:38.032Z,1.40
2023-02-14T16:11:13.796Z,1.23
2023-02-14T16:13:43.707Z,1.30
2023-02-14T16:16:15.649Z,1.40
2023-02-14T16:18:47.978Z,1.17
2023-02-14T16:21:28.733Z,1.10
2023-02-14T16:24:12.657Z,1.23
2023-02-14T16:26:46.818Z,1.40
2023-02-14T16:29:21.202Z,1.40
2023-02-14T16:34:38.815Z,1.20
2023-02-14T16:37:11.048Z,1.40
2023-02-14T16:39:43.100Z,1.30
2023-02-14T16:42:21.789Z,1.10
2023-02-14T16:44:56.089Z,1.20
2023-02-14T16:47:36.476Z,1.30
2023-02-14T16:50:17.524Z,1.20
2023-02-14T16:52:52.099Z,1.43
2023-02-14T16:55:20.879Z,1.50
2023-02-14T16:57:52.046Z,1.37
2023-02-14T17:00:19.878Z,1.30
2023-02-14T17:02:47.238Z,1.30
2023-02-14T17:05:14.954Z,1.40
2023-02-14T17:07:44.245Z,1.50
2023-02-14T17:10:17.454Z,1.40
2023-02-14T17:12:48.605Z,1.57
2023-02-14T17:15:19.375Z,1.53
2023-02-14T17:17:49.044Z,1.30
2023-02-14T17:20:19.627Z,1.73
2023-02-14T17:22:53.064Z,1.23
2023-02-14T17:25:21.242Z,1.90
2023-02-14T17:27:49.664Z,1.90
2023-02-14T17:30:17.094Z,1.40
2023-02-14T17:32:44.427Z,1.63
2023-02-14T17:35:12.149Z,1.40
2023-02-14T17:37:39.715Z,1.50
2023-02-14T17:40:07.812Z,1.63
2023-02-14T17:42:36.047Z,1.80
2023-02-14T17:45:06.237Z,1.60
2023-02-14T17:47:34.404Z,1.60
2023-02-14T17:50:03.841Z,1.63
2023-02-14T17:52:31.962Z,1.80
2023-02-14T17:55:00.827Z,2.00
2023-02-14T17:57:28.689Z,2.20
2023-02-14T17:59:55.967Z,1.73
2023-02-14T18:02:23.229Z,2.03
2023-02-14T18:04:52.931Z,1.70
2023-02-14T18:07:20.200Z,2.10
2023-02-14T18:09:47.546Z,2.17
2023-02-14T18:12:16.249Z,2.30
2023-02-14T18:14:43.692Z,2.13
2023-02-14T18:17:13.813Z,2.00
2023-02-14T18:19:41.790Z,1.83
2023-02-14T18:22:09.045Z,2.33
2023-02-14T18:24:37.103Z,1.90
2023-02-14T18:27:06.501Z,2.30
2023-02-14T18:29:35.449Z,2.30
2023-02-14T18:32:05.265Z,2.10
2023-02-14T18:34:33.062Z,2.50
2023-02-14T18:37:01.978Z,2.30
2023-02-14T18:39:29.214Z,2.13
2023-02-14T18:42:00.042Z,2.20
2023-02-14T18:44:28.999Z,2.83
2023-02-14T18:46:56.386Z,2.00
2023-02-14T18:49:23.688Z,2.17
2023-02-14T18:51:51.087Z,2.60
2023-02-14T18:54:18.440Z,2.70
2023-02-14T18:56:45.972Z,2.50
2023-02-14T18:59:17.130Z,2.70
2023-02-14T19:01:45.558Z,3.00
2023-02-14T19:04:13.658Z,2.30
2023-02-14T19:06:42.618Z,2.43
2023-02-14T19:09:15.482Z,2.50
2023-02-14T19:11:43.403Z,2.80
2023-02-14T19:14:11.712Z,2.90
2023-02-14T19:16:44.118Z,2.70
2023-02-14T19:19:11.805Z,2.90
2023-02-14T19:21:39.212Z,3.20
2023-02-14T19:24:08.397Z,3.20
2023-02-14T19:26:42.458Z,3.53
2023-02-14T19:29:12.918Z,3.50
2023-02-14T19:31:48.719Z,3.53
2023-02-14T19:34:26.706Z,3.33
2023-02-14T19:36:57.394Z,4.63
2023-02-14T19:39:24.919Z,4.37
2023-02-14T19:41:52.445Z,5.83
2023-02-14T19:44:20.097Z,6.37
2023-02-14T19:46:47.901Z,7.00
2023-02-14T19:49:19.932Z,7.03
2023-02-14T19:51:49.125Z,7.00
2023-02-14T19:54:16.693Z,7.90
2023-02-14T19:56:47.295Z,8.20
2023-02-14T19:59:20.314Z,8.17
2023-02-14T20:01:51.915Z,7.63
2023-02-14T20:04:24.630Z,8.60
2023-02-14T20:06:52.923Z,8.43
2023-02-14T20:09:25.715Z,8.13
2023-02-14T20:11:55.256Z,8.27
2023-02-14T20:14:28.746Z,8.53
2023-02-14T20:16:59.137Z,8.63
2023-02-14T20:19:30.542Z,9.20
2023-02-14T20:21:57.892Z,9.07
2023-02-14T20:24:31.332Z,8.57
2023-02-14T20:27:00.655Z,10.37
2023-02-14T20:29:28.473Z,9.83
2023-02-14T20:32:03.686Z,9.83
2023-02-14T20:34:31.355Z,10.10
2023-02-14T20:36:59.438Z,9.43
2023-02-14T20:39:32.343Z,10.67
2023-02-14T20:42:00.350Z,10.07
2023-02-14T20:44:28.308Z,10.77
2023-02-14T20:46:56.661Z,10.27
2023-02-14T20:49:28.963Z,10.43
2023-02-14T20:51:57.072Z,10.53
2023-02-14T20:54:26.877Z,10.57
2023-02-14T20:56:54.899Z,10.87
2023-02-14T20:59:28.984Z,10.77
2023-02-14T21:01:58.469Z,11.03
2023-02-14T21:04:26.214Z,11.77
2023-02-14T21:06:53.833Z,12.30
2023-02-14T21:09:21.388Z,10.97
2023-02-14T21:11:49.724Z,11.10
2023-02-14T21:14:17.565Z,13.03
2023-02-14T21:16:44.783Z,11.07
2023-02-14T21:19:11.952Z,11.17
2023-02-14T21:21:39.702Z,10.63
2023-02-14T21:24:10.483Z,11.17
2023-02-14T21:26:38.619Z,11.90
2023-02-14T21:29:06.861Z,13.40
2023-02-14T21:31:35.460Z,11.83
2023-02-14T21:34:04.905Z,13.40
2023-02-14T21:36:37.321Z,12.27
2023-02-14T21:39:07.028Z,12.50
2023-02-14T21:41:35.931Z,13.37
2023-02-14T21:44:04.173Z,14.20
2023-02-14T21:46:33.725Z,12.57
2023-02-14T21:49:20.886Z,14.97
2023-02-14T21:51:49.089Z,15.67
2023-02-14T21:54:16.738Z,15.97
2023-02-14T21:56:44.412Z,14.37
2023-02-14T21:59:12.233Z,15.67
2023-02-14T22:01:41.781Z,15.27
2023-02-14T22:04:11.638Z,14.50
2023-02-14T22:06:40.647Z,15.57
2023-02-14T22:09:08.997Z,14.30
2023-02-14T22:11:36.732Z,15.27
2023-02-14T22:14:04.617Z,15.07
2023-02-14T22:16:32.307Z,15.33
2023-02-14T22:18:59.478Z,17.47
2023-02-14T22:21:27.153Z,15.90
2023-02-14T22:23:55.791Z,17.67
2023-02-14T22:26:27.390Z,15.50
2023-02-14T22:28:59.751Z,15.23
2023-02-14T22:31:29.872Z,16.03
2023-02-14T22:33:57.250Z,15.93
2023-02-14T22:36:24.485Z,17.23
2023-02-14T22:38:52.049Z,17.20
2023-02-14T22:41:22.634Z,17.13
2023-02-14T22:43:50.317Z,15.87
2023-02-14T22:46:20.604Z,17.00
2023-02-14T22:48:49.730Z,15.43
2023-02-14T22:51:35.341Z,16.20
2023-02-14T22:54:05.931Z,15.97
2023-02-14T22:56:41.193Z,15.03
2023-02-14T22:59:14.677Z,14.40
2023-02-14T23:01:42.254Z,14.80
2023-02-14T23:04:09.734Z,14.00
2023-02-14T23:06:39.908Z,14.10
2023-02-14T23:09:09.281Z,13.80
2023-02-14T23:11:39.007Z,13.03
2023-02-14T23:14:25.574Z,14.23
2023-02-14T23:17:25.141Z,12.97
2023-02-14T23:20:11.098Z,13.63
2023-02-14T23:22:40.537Z,13.30
2023-02-14T23:25:10.277Z,13.20
2023-02-14T23:27:41.870Z,11.83
2023-02-14T23:30:12.885Z,12.60
2023-02-14T23:32:40.106Z,11.70
2023-02-14T23:35:07.919Z,12.03
2023-02-14T23:37:35.148Z,11.17
2023-02-14T23:40:02.254Z,11.33
2023-02-14T23:42:29.511Z,11.93
2023-02-14T23:45:16.651Z,12.47
2023-02-14T23:47:44.000Z,11.13
2023-02-14T23:50:11.560Z,11.50
2023-02-14T23:52:41.983Z,11.30
2023-02-14T23:55:09.652Z,11.63
2023-02-14T23:57:37.474Z,11.03
